createdAt,value
2023-04-05T00:02:54.645Z,-3.65
2023-04-05T00:05:54.670Z,-3.59
2023-04-05T00:08:51.563Z,-3.56
2023-04-05T00:11:48.705Z,-3.81
2023-04-05T00:14:46.125Z,-3.55
2023-04-05T00:17:43.945Z,-3.68
2023-04-05T00:20:41.062Z,-3.81
2023-04-05T00:23:39.871Z,-3.64
2023-04-05T00:26:36.768Z,-3.75
2023-04-05T00:29:34.185Z,-3.55
2023-04-05T00:32:31.135Z,-3.70
2023-04-05T00:35:28.836Z,-3.60
2023-04-05T00:38:25.714Z,-3.75
2023-04-05T00:41:22.550Z,-3.77
2023-04-05T00:44:19.401Z,-3.85
2023-04-05T00:47:16.238Z,-3.79
2023-04-05T00:50:13.486Z,-3.79
2023-04-05T00:53:10.652Z,-3.82
2023-04-05T00:56:08.889Z,-3.84
2023-04-05T00:59:05.832Z,-3.80
2023-04-05T01:02:31.809Z,-3.92
2023-04-05T01:06:18.705Z,-3.87
2023-04-05T01:09:47.871Z,-3.93
2023-04-05T01:12:45.506Z,-3.69
2023-04-05T01:15:42.463Z,-3.84
2023-04-05T01:18:40.746Z,-3.85
2023-04-05T01:21:40.116Z,-3.91
2023-04-05T01:24:57.909Z,-3.97
2023-04-05T01:28:31.405Z,-4.00
2023-04-05T01:32:00.698Z,-3.87
2023-04-05T01:35:17.878Z,-3.81
2023-04-05T01:38:22.253Z,-4.01
2023-04-05T01:41:19.111Z,-4.04
2023-04-05T01:44:16.306Z,-4.19
2023-04-05T01:47:13.267Z,-4.10
2023-04-05T01:50:10.620Z,-4.14
2023-04-05T01:53:08.389Z,-4.15
2023-04-05T01:56:05.705Z,-4.11
2023-04-05T01:59:02.697Z,-4.30
2023-04-05T02:01:59.594Z,-4.31
2023-04-05T02:04:56.422Z,-4.18
2023-04-05T02:07:53.312Z,-4.27
2023-04-05T02:10:52.501Z,-4.21
2023-04-05T02:13:49.342Z,-4.23
2023-04-05T02:16:46.744Z,-4.35
2023-04-05T02:19:46.268Z,-4.23
2023-04-05T02:22:45.247Z,-4.28
2023-04-05T02:25:42.337Z,-4.31
2023-04-05T02:28:39.191Z,-4.48
2023-04-05T02:31:36.094Z,-4.36
2023-04-05T02:34:33.721Z,-4.32
2023-04-05T02:37:30.897Z,-4.40
2023-04-05T02:40:27.795Z,-4.38
2023-04-05T02:43:24.648Z,-4.38
2023-04-05T02:46:21.607Z,-4.34
2023-04-05T02:49:18.581Z,-4.51
2023-04-05T02:52:16.262Z,-4.55
2023-04-05T02:55:13.105Z,-4.59
2023-04-05T02:58:09.956Z,-4.40
2023-04-05T03:01:07.352Z,-4.48
2023-04-05T03:04:04.323Z,-4.44
2023-04-05T03:07:04.917Z,-4.39
2023-04-05T03:10:02.597Z,-4.52
2023-04-05T03:12:59.435Z,-4.53
2023-04-05T03:15:56.300Z,-4.48
2023-04-05T03:18:53.257Z,-4.42
2023-04-05T03:21:50.385Z,-4.54
2023-04-05T03:24:47.806Z,-4.67
2023-04-05T03:27:45.937Z,-4.75
2023-04-05T03:30:42.772Z,-4.72
2023-04-05T03:33:39.654Z,-4.72
2023-04-05T03:36:42.651Z,-4.75
2023-04-05T03:39:39.542Z,-4.75
2023-04-05T03:42:36.381Z,-4.71
2023-04-05T03:45:33.835Z,-4.67
2023-04-05T03:48:30.778Z,-4.70
2023-04-05T03:51:28.064Z,-4.70
2023-04-05T03:54:24.946Z,-4.77
2023-04-05T03:57:22.289Z,-4.76
2023-04-05T04:00:19.990Z,-4.77
2023-04-05T04:03:16.804Z,-4.69
2023-04-05T04:06:14.355Z,-4.66
2023-04-05T04:09:12.199Z,-4.55
2023-04-05T04:12:09.052Z,-4.67
2023-04-05T04:15:06.981Z,-4.85
2023-04-05T04:18:04.238Z,-4.90
2023-04-05T04:21:06.880Z,-4.75
2023-04-05T04:24:04.038Z,-4.63
2023-04-05T04:27:00.865Z,-4.68
2023-04-05T04:30:04.520Z,-4.80
2023-04-05T04:33:06.656Z,-4.94
2023-04-05T04:36:09.403Z,-4.84
2023-04-05T04:39:06.380Z,-4.89
2023-04-05T04:42:04.126Z,-4.92
2023-04-05T04:45:02.694Z,-4.99
2023-04-05T04:47:59.932Z,-4.96
2023-04-05T04:50:57.405Z,-4.91
2023-04-05T04:53:54.193Z,-4.91
2023-04-05T04:56:51.055Z,-4.95
2023-04-05T04:59:47.886Z,-4.86
2023-04-05T05:02:44.845Z,-5.01
2023-04-05T05:05:51.648Z,-4.83
2023-04-05T05:08:49.098Z,-4.73
2023-04-05T05:11:46.060Z,-4.77
2023-04-05T05:14:42.992Z,-4.71
2023-04-05T05:17:39.976Z,-4.64
2023-04-05T05:20:37.402Z,-4.53
2023-04-05T05:23:34.273Z,-4.65
2023-04-05T05:26:31.114Z,-4.56
2023-04-05T05:29:28.041Z,-4.68
2023-04-05T05:32:24.897Z,-4.54
2023-04-05T05:35:21.732Z,-4.55
2023-04-05T05:38:18.901Z,-4.48
2023-04-05T05:41:15.853Z,-4.14
2023-04-05T05:44:13.430Z,-4.08
2023-04-05T05:47:10.350Z,-4.37
2023-04-05T05:50:09.110Z,-4.33
2023-04-05T05:53:06.199Z,-4.33
2023-04-05T05:56:03.363Z,-4.37
2023-04-05T05:59:01.714Z,-4.21
2023-04-05T06:01:58.645Z,-4.10
2023-04-05T06:04:55.665Z,-4.06
2023-04-05T06:07:52.891Z,-3.94
2023-04-05T06:10:51.026Z,-3.89
2023-04-05T06:13:47.873Z,-3.78
2023-04-05T06:16:44.954Z,-3.79
2023-04-05T06:19:41.843Z,-3.70
2023-04-05T06:22:41.234Z,-3.54
2023-04-05T06:25:38.259Z,-3.54
2023-04-05T06:28:35.440Z,-3.31
2023-04-05T06:31:34.828Z,-3.18
2023-04-05T06:34:31.924Z,-3.11
2023-04-05T06:37:28.801Z,-3.06
2023-04-05T06:40:25.953Z,-2.78
2023-04-05T06:43:22.817Z,-2.71
2023-04-05T06:46:19.742Z,-2.77
2023-04-05T06:49:16.700Z,-2.75
2023-04-05T06:52:13.519Z,-2.58
2023-04-05T06:55:10.504Z,-2.44
2023-04-05T06:58:07.328Z,-2.33
2023-04-05T07:01:04.995Z,-2.17
2023-04-05T07:04:02.103Z,-2.04
2023-04-05T07:07:02.403Z,-1.91
2023-04-05T07:09:59.622Z,-1.83
2023-04-05T07:12:56.551Z,-1.85
2023-04-05T07:16:00.423Z,-1.92
2023-04-05T07:18:57.905Z,-1.84
2023-04-05T07:21:57.150Z,-1.66
2023-04-05T07:24:55.533Z,-1.43
2023-04-05T07:27:52.768Z,-1.13
2023-04-05T07:30:49.933Z,-1.12
2023-04-05T07:33:46.767Z,-1.01
2023-04-05T07:36:43.571Z,-0.54
2023-04-05T07:39:40.508Z,-0.53
2023-04-05T07:42:37.661Z,-0.17
2023-04-05T07:45:34.504Z,-0.11
2023-04-05T07:48:31.477Z,0.24
2023-04-05T07:51:28.395Z,0.41
2023-04-05T07:54:25.368Z,0.70
2023-04-05T07:57:22.532Z,0.75
2023-04-05T08:00:20.428Z,0.70
2023-04-05T08:03:17.502Z,0.79
2023-04-05T08:06:19.230Z,1.05
2023-04-05T08:09:16.089Z,3.59
2023-04-05T08:12:12.914Z,2.15
2023-04-05T08:15:10.502Z,2.31
2023-04-05T08:18:07.371Z,2.14
2023-04-05T08:21:04.335Z,1.79
2023-04-05T08:24:01.238Z,2.07
2023-04-05T08:26:58.098Z,1.94
2023-04-05T08:29:54.892Z,2.09
2023-04-05T08:32:51.776Z,1.79
2023-04-05T08:35:48.677Z,2.13
2023-04-05T08:38:45.630Z,2.28
2023-04-05T08:42:02.191Z,2.17
2023-04-05T08:45:03.315Z,2.20
2023-04-05T08:48:00.259Z,2.16
2023-04-05T08:50:57.108Z,2.22
2023-04-05T08:53:54.665Z,2.04
2023-04-05T08:56:54.542Z,2.22
2023-04-05T08:59:52.902Z,2.10
2023-04-05T09:02:54.750Z,2.48
2023-04-05T09:05:53.624Z,2.55
2023-04-05T09:08:50.570Z,2.05
2023-04-05T09:11:48.444Z,2.85
2023-04-05T09:14:46.378Z,3.02
2023-04-05T09:17:44.032Z,3.52
2023-04-05T09:20:41.099Z,2.42
2023-04-05T09:23:50.755Z,2.60
2023-04-05T09:26:47.639Z,2.87
2023-04-05T09:29:47.590Z,3.00
2023-04-05T09:32:47.910Z,2.98
2023-04-05T09:35:45.054Z,3.18
2023-04-05T09:38:44.746Z,3.11
2023-04-05T09:41:41.907Z,3.23
2023-04-05T09:44:55.049Z,2.81
2023-04-05T09:47:58.111Z,2.64
2023-04-05T09:51:12.682Z,3.11
2023-04-05T09:54:11.368Z,3.31
2023-04-05T09:57:10.361Z,3.19
2023-04-05T10:00:20.698Z,3.16
2023-04-05T10:03:17.800Z,3.40
2023-04-05T10:06:16.723Z,7.30
2023-04-05T10:09:15.224Z,8.14
2023-04-05T10:12:28.447Z,6.75
2023-04-05T10:15:26.919Z,7.93
2023-04-05T10:18:29.794Z,10.92
2023-04-05T10:21:33.688Z,11.59
2023-04-05T10:24:59.986Z,11.18
2023-04-05T10:28:06.403Z,8.94
2023-04-05T10:31:37.079Z,7.33
2023-04-05T10:34:51.255Z,7.59
2023-04-05T10:38:20.039Z,9.22
2023-04-05T10:41:17.442Z,10.01
2023-04-05T10:44:25.745Z,11.67
2023-04-05T10:47:28.227Z,10.58
2023-04-05T10:50:25.856Z,10.90
2023-04-05T10:53:23.415Z,10.46
2023-04-05T10:56:21.518Z,10.86
2023-04-05T10:59:19.021Z,12.22
2023-04-05T11:02:16.907Z,10.80
2023-04-05T11:05:37.769Z,11.51
2023-04-05T11:08:35.549Z,9.69
2023-04-05T11:11:46.344Z,9.74
2023-04-05T11:14:44.535Z,12.06
2023-04-05T11:17:41.467Z,12.64
2023-04-05T11:20:51.598Z,11.52
2023-04-05T11:24:11.829Z,12.74
2023-04-05T11:27:10.213Z,10.62
2023-04-05T11:30:07.766Z,11.59
2023-04-05T11:33:08.601Z,12.85
2023-04-05T11:36:05.632Z,11.42
2023-04-05T11:39:23.420Z,12.40
2023-04-05T11:42:21.814Z,12.85
2023-04-05T11:45:19.664Z,12.47
2023-04-05T11:48:17.782Z,10.58
2023-04-05T11:51:16.080Z,10.93
2023-04-05T11:54:12.919Z,11.31
2023-04-05T11:57:14.027Z,12.58
2023-04-05T12:00:18.652Z,12.69
2023-04-05T12:03:17.254Z,12.92
2023-04-05T12:06:14.115Z,12.04
2023-04-05T12:09:11.048Z,12.80
2023-04-05T12:12:17.256Z,13.09
2023-04-05T12:15:17.675Z,13.25
2023-04-05T12:18:15.522Z,11.91
2023-04-05T12:21:12.512Z,12.30
2023-04-05T12:24:09.627Z,14.29
2023-04-05T12:27:06.817Z,14.40
2023-04-05T12:30:08.510Z,13.20
2023-04-05T12:33:11.936Z,13.86
2023-04-05T12:36:09.279Z,13.77
2023-04-05T12:39:08.729Z,12.74
2023-04-05T12:42:05.856Z,13.31
2023-04-05T12:45:05.281Z,12.62
2023-04-05T12:48:02.302Z,14.41
2023-04-05T12:51:05.016Z,13.72
2023-04-05T12:54:04.219Z,10.08
2023-04-05T12:57:04.484Z,8.94
2023-04-05T13:00:01.477Z,8.33
2023-04-05T13:02:59.736Z,9.84
2023-04-05T13:05:57.014Z,9.82
2023-04-05T13:08:53.925Z,10.59
2023-04-05T13:11:51.532Z,9.41
2023-04-05T13:14:48.476Z,11.37
2023-04-05T13:17:49.912Z,12.81
2023-04-05T13:20:47.121Z,14.40
2023-04-05T13:23:43.954Z,12.18
2023-04-05T13:26:40.840Z,10.46
2023-04-05T13:29:37.651Z,8.95
2023-04-05T13:32:34.755Z,8.76
2023-04-05T13:35:31.968Z,10.68
2023-04-05T13:38:28.842Z,13.24
2023-04-05T13:41:26.032Z,12.10
2023-04-05T13:44:23.398Z,12.97
2023-04-05T13:47:20.358Z,12.72
2023-04-05T13:50:17.218Z,9.54
2023-04-05T13:53:14.193Z,8.75
2023-04-05T13:56:11.078Z,10.89
2023-04-05T13:59:08.063Z,10.61
2023-04-05T14:02:05.043Z,11.79
2023-04-05T14:05:02.102Z,11.98
2023-04-05T14:07:58.930Z,11.33
2023-04-05T14:10:55.955Z,11.94
2023-04-05T14:13:52.844Z,13.10
2023-04-05T14:16:49.673Z,12.97
2023-04-05T14:19:46.633Z,13.08
2023-04-05T14:22:43.494Z,12.64
2023-04-05T14:25:40.609Z,13.04
2023-04-05T14:28:37.745Z,12.92
2023-04-05T14:31:34.781Z,12.76
2023-04-05T14:34:31.692Z,13.27
2023-04-05T14:37:28.701Z,11.89
2023-04-05T14:40:25.685Z,12.80
2023-04-05T14:43:25.801Z,12.04
2023-04-05T14:46:23.552Z,12.39
2023-04-05T14:49:20.561Z,12.07
2023-04-05T14:52:17.533Z,11.48
2023-04-05T14:55:14.870Z,12.36
2023-04-05T14:58:13.775Z,12.40
2023-04-05T15:01:11.403Z,13.09
2023-04-05T15:04:09.456Z,11.96
2023-04-05T15:07:06.406Z,11.98
2023-04-05T15:10:04.195Z,12.19
2023-04-05T15:13:01.245Z,13.18
2023-04-05T15:15:58.061Z,11.47
2023-04-05T15:18:55.583Z,12.56
2023-04-05T15:21:52.455Z,10.65
2023-04-05T15:24:49.481Z,10.73
2023-04-05T15:27:46.379Z,11.16
2023-04-05T15:30:44.861Z,11.63
2023-04-05T15:33:41.693Z,11.30
2023-04-05T15:36:38.554Z,11.16
2023-04-05T15:39:35.380Z,10.66
2023-04-05T15:42:34.470Z,10.55
2023-04-05T15:45:31.775Z,11.16
2023-04-05T15:48:28.604Z,10.96
2023-04-05T15:51:25.630Z,10.81
2023-04-05T15:54:22.459Z,10.78
2023-04-05T15:57:19.751Z,10.78
2023-04-05T16:00:17.026Z,10.09
2023-04-05T16:03:14.609Z,10.48
2023-04-05T16:06:11.587Z,10.20
2023-04-05T16:09:08.457Z,10.32
2023-04-05T16:12:05.528Z,10.21
2023-04-05T16:15:02.493Z,9.65
2023-04-05T16:17:59.440Z,9.53
2023-04-05T16:20:57.382Z,9.91
2023-04-05T16:23:56.772Z,9.42
2023-04-05T16:26:53.718Z,9.26
2023-04-05T16:29:50.593Z,9.01
2023-04-05T16:32:49.628Z,9.51
2023-04-05T16:35:46.503Z,8.82
2023-04-05T16:38:45.027Z,9.68
2023-04-05T16:41:43.021Z,8.98
2023-04-05T16:44:39.941Z,8.32
2023-04-05T16:47:37.587Z,8.53
2023-04-05T16:50:34.614Z,8.67
2023-04-05T16:53:31.512Z,7.76
2023-04-05T16:56:28.840Z,7.54
2023-04-05T16:59:25.863Z,8.22
2023-04-05T17:02:22.876Z,8.27
2023-04-05T17:05:19.702Z,7.90
2023-04-05T17:08:16.521Z,7.95
2023-04-05T17:11:13.405Z,7.47
2023-04-05T17:14:10.306Z,7.64
2023-04-05T17:17:07.111Z,6.89
2023-04-05T17:20:04.544Z,6.89
2023-04-05T17:23:01.446Z,6.66
2023-04-05T17:25:58.254Z,6.40
2023-04-05T17:28:55.073Z,6.47
2023-04-05T17:31:51.872Z,6.76
2023-04-05T17:34:48.676Z,6.82
2023-04-05T17:37:46.680Z,6.27
2023-04-05T17:40:43.544Z,6.60
2023-04-05T17:43:40.533Z,5.78
2023-04-05T17:46:42.627Z,5.23
2023-04-05T17:49:41.539Z,5.83
2023-04-05T17:52:38.376Z,5.72
2023-04-05T17:55:35.253Z,5.32
2023-04-05T17:58:32.552Z,4.81
2023-04-05T18:01:29.521Z,5.34
2023-04-05T18:04:26.880Z,4.92
2023-04-05T18:07:23.752Z,5.06
2023-04-05T18:10:21.226Z,4.96
2023-04-05T18:13:19.445Z,5.21
2023-04-05T18:16:16.586Z,5.11
2023-04-05T18:19:13.513Z,4.27
2023-04-05T18:22:10.592Z,4.45
2023-04-05T18:25:09.150Z,5.05
2023-04-05T18:28:19.295Z,4.95
2023-04-05T18:31:18.945Z,4.74
2023-04-05T18:34:16.336Z,5.11
2023-04-05T18:37:13.173Z,4.44
2023-04-05T18:40:10.543Z,4.58
2023-04-05T18:43:07.573Z,4.50
2023-04-05T18:46:04.602Z,4.07
2023-04-05T18:49:01.462Z,3.53
2023-04-05T18:51:58.353Z,3.48
2023-04-05T18:54:58.440Z,3.57
2023-04-05T18:57:55.327Z,3.77
2023-04-05T19:00:52.798Z,3.73
2023-04-05T19:03:50.488Z,3.34
2023-04-05T19:06:47.361Z,3.54
2023-04-05T19:09:44.291Z,3.54
2023-04-05T19:12:41.324Z,3.40
2023-04-05T19:15:38.524Z,3.18
2023-04-05T19:18:35.605Z,3.29
2023-04-05T19:21:32.592Z,3.12
2023-04-05T19:24:29.420Z,3.22
2023-04-05T19:27:30.813Z,3.34
2023-04-05T19:30:27.636Z,3.07
2023-04-05T19:33:24.456Z,3.18
2023-04-05T19:36:21.293Z,3.26
2023-04-05T19:39:18.143Z,3.23
2023-04-05T19:42:14.958Z,3.21
2023-04-05T19:45:13.702Z,2.92
2023-04-05T19:48:36.894Z,2.93
2023-04-05T19:51:33.768Z,2.55
2023-04-05T19:54:30.605Z,2.31
2023-04-05T19:57:28.676Z,2.14
2023-04-05T20:00:42.760Z,2.04
2023-04-05T20:03:41.309Z,1.84
2023-04-05T20:06:38.983Z,1.80
2023-04-05T20:09:38.625Z,1.73
2023-04-05T20:12:35.521Z,1.66
2023-04-05T20:15:37.387Z,1.64
2023-04-05T20:18:34.305Z,1.65
2023-04-05T20:21:31.238Z,1.43
2023-04-05T20:24:28.694Z,1.30
2023-04-05T20:27:25.529Z,1.22
2023-04-05T20:30:22.339Z,0.99
2023-04-05T20:33:47.181Z,0.85
2023-04-05T20:36:49.493Z,0.71
2023-04-05T20:39:46.314Z,0.61
2023-04-05T20:42:43.189Z,0.74
2023-04-05T20:45:40.106Z,0.64
2023-04-05T20:48:37.462Z,0.65
2023-04-05T20:51:34.392Z,0.32
2023-04-05T20:54:31.586Z,0.24
2023-04-05T20:57:29.410Z,0.16
2023-04-05T21:00:26.212Z,0.20
2023-04-05T21:03:23.454Z,0.08
2023-04-05T21:06:20.508Z,-0.28
2023-04-05T21:09:17.399Z,-0.09
2023-04-05T21:12:14.210Z,0.17
2023-04-05T21:15:11.116Z,-0.07
2023-04-05T21:18:08.441Z,-0.28
2023-04-05T21:21:05.730Z,-0.28
2023-04-05T21:24:02.591Z,-0.37
2023-04-05T21:26:59.402Z,-0.30
2023-04-05T21:29:56.278Z,-0.58
2023-04-05T21:32:54.052Z,-0.65
2023-04-05T21:35:51.194Z,-0.72
2023-04-05T21:38:48.086Z,-0.85
2023-04-05T21:41:44.938Z,-0.45
2023-04-05T21:44:41.755Z,-0.63
2023-04-05T21:47:38.728Z,-0.63
2023-04-05T21:50:35.743Z,-0.79
2023-04-05T21:53:32.626Z,-0.44
2023-04-05T21:56:29.444Z,-0.56
2023-04-05T21:59:26.300Z,-0.62
2023-04-05T22:02:23.215Z,-0.62
2023-04-05T22:05:34.042Z,-0.78
2023-04-05T22:08:34.360Z,-0.96
2023-04-05T22:11:31.366Z,-0.99
2023-04-05T22:14:28.528Z,-0.95
2023-04-05T22:17:25.575Z,-0.98
2023-04-05T22:20:22.453Z,-1.03
2023-04-05T22:23:19.262Z,-1.07
2023-04-05T22:26:16.084Z,-1.22
2023-04-05T22:29:13.000Z,-1.52
2023-04-05T22:32:10.044Z,-1.46
2023-04-05T22:35:07.437Z,-1.40
2023-04-05T22:38:04.456Z,-1.36
2023-04-05T22:41:01.381Z,-1.20
2023-04-05T22:43:58.240Z,-1.17
2023-04-05T22:46:55.035Z,-1.30
2023-04-05T22:49:52.340Z,-1.25
2023-04-05T22:52:49.220Z,-1.36
2023-04-05T22:55:46.068Z,-1.36
2023-04-05T22:58:42.892Z,-1.36
2023-04-05T23:01:39.847Z,-1.46
2023-04-05T23:04:36.777Z,-1.61
2023-04-05T23:07:33.670Z,-1.73
2023-04-05T23:10:30.570Z,-1.56
2023-04-05T23:13:27.509Z,-1.73
2023-04-05T23:16:24.480Z,-1.64
2023-04-05T23:19:21.482Z,-1.76
2023-04-05T23:22:18.270Z,-1.61
2023-04-05T23:25:15.093Z,-1.46
2023-04-05T23:28:11.906Z,-1.70
2023-04-05T23:31:08.841Z,-1.77
2023-04-05T23:34:05.789Z,-1.72
2023-04-05T23:37:02.585Z,-1.69
2023-04-05T23:39:59.400Z,-1.89
2023-04-05T23:42:56.410Z,-1.89
2023-04-05T23:45:53.250Z,-1.77
2023-04-05T23:48:51.072Z,-1.84
2023-04-05T23:51:47.909Z,-1.90
2023-04-05T23:54:44.731Z,-1.85
2023-04-05T23:57:41.684Z,-1.94
